createdAt,value
2023-01-04T00:00:40.322Z,100675.48
2023-01-04T00:01:43.053Z,100678.99
2023-01-04T00:02:45.032Z,100678.29
2023-01-04T00:03:48.212Z,100668.87
2023-01-04T00:04:50.285Z,100685.30
2023-01-04T00:05:56.042Z,100683.44
2023-01-04T00:06:58.387Z,100680.00
2023-01-04T00:08:00.272Z,100690.48
2023-01-04T00:09:03.449Z,100691.39
2023-01-04T00:10:05.938Z,100689.69
2023-01-04T00:11:11.615Z,100690.54
2023-01-04T00:12:13.588Z,100691.33
2023-01-04T00:13:15.501Z,100691.33
2023-01-04T00:14:17.396Z,100691.39
2023-01-04T00:15:19.738Z,100702.70
2023-01-04T00:16:25.303Z,100690.48
2023-01-04T00:17:28.207Z,100688.86
2023-01-04T00:18:31.394Z,100688.86
2023-01-04T00:19:33.296Z,100693.12
2023-01-04T00:20:35.680Z,100696.66
2023-01-04T00:21:37.970Z,100698.46
2023-01-04T00:22:39.953Z,100699.43
2023-01-04T00:23:46.196Z,100703.73
2023-01-04T00:24:48.143Z,100702.88
2023-01-04T00:25:50.318Z,100706.27
2023-01-04T00:26:52.605Z,100705.55
2023-01-04T00:27:54.600Z,100702.00
2023-01-04T00:28:58.630Z,100707.20
2023-01-04T00:30:00.639Z,100697.13
2023-01-04T00:31:04.844Z,100713.47
2023-01-04T00:32:07.552Z,100703.78
2023-01-04T00:33:09.547Z,100705.78
2023-01-04T00:34:14.268Z,100697.02
2023-01-04T00:35:43.657Z,100711.67
2023-01-04T00:36:22.242Z,100702.99
2023-01-04T00:37:25.161Z,100697.80
2023-01-04T00:38:27.087Z,100704.84
2023-01-04T00:39:29.025Z,100703.05
2023-01-04T00:40:31.032Z,100706.55
2023-01-04T00:42:42.168Z,100707.52
2023-01-04T00:43:44.068Z,100703.96
2023-01-04T00:44:46.742Z,100699.63
2023-01-04T00:45:48.746Z,100704.90
2023-01-04T00:46:50.924Z,100708.29
2023-01-04T00:47:53.018Z,100708.34
2023-01-04T00:49:00.065Z,100711.82
2023-01-04T00:49:59.456Z,100700.66
2023-01-04T00:51:01.592Z,100707.58
2023-01-04T00:52:04.002Z,100715.55
2023-01-04T00:53:05.885Z,100706.80
2023-01-04T00:54:11.531Z,100714.50
2023-01-04T00:55:13.668Z,100712.90
2023-01-04T00:56:16.557Z,100717.23
2023-01-04T00:57:18.448Z,100708.48
2023-01-04T00:58:21.471Z,100713.67
2023-01-04T00:59:23.527Z,100708.34
2023-01-04T01:00:25.826Z,100704.95
2023-01-04T01:01:29.454Z,100701.56
2023-01-04T01:02:31.836Z,100703.30
2023-01-04T01:03:38.472Z,100705.95
2023-01-04T01:04:39.062Z,100706.72
2023-01-04T01:05:41.087Z,100702.45
2023-01-04T01:06:43.821Z,100699.77
2023-01-04T01:07:46.082Z,100695.53
2023-01-04T01:08:48.184Z,100701.56
2023-01-04T01:09:50.175Z,100698.92
2023-01-04T01:10:53.962Z,100692.88
2023-01-04T01:11:55.884Z,100706.80
2023-01-04T01:12:58.094Z,100703.30
2023-01-04T01:13:59.980Z,100699.77
2023-01-04T01:15:02.879Z,100701.53
2023-01-04T01:16:08.439Z,100701.75
2023-01-04T01:17:10.909Z,100705.17
2023-01-04T01:18:13.433Z,100706.97
2023-01-04T01:19:15.952Z,100707.85
2023-01-04T01:20:18.195Z,100706.91
2023-01-04T01:21:24.277Z,100701.67
2023-01-04T01:22:26.376Z,100706.14
2023-01-04T01:23:29.403Z,100704.32
2023-01-04T01:24:31.431Z,100707.02
2023-01-04T01:25:33.543Z,100707.02
2023-01-04T01:26:35.543Z,100701.78
2023-01-04T01:27:37.749Z,100703.58
2023-01-04T01:28:41.198Z,100704.51
2023-01-04T01:29:43.844Z,100699.53
2023-01-04T01:30:46.000Z,100694.14
2023-01-04T01:31:48.128Z,100700.18
2023-01-04T01:32:50.104Z,100702.00
2023-01-04T01:33:54.434Z,100705.58
2023-01-04T01:34:56.350Z,100702.08
2023-01-04T01:36:02.809Z,100704.75
2023-01-04T01:37:05.612Z,100696.79
2023-01-04T01:38:07.592Z,100706.30
2023-01-04T01:39:09.591Z,100703.62
2023-01-04T01:40:12.288Z,100700.12
2023-01-04T01:41:22.246Z,100705.31
2023-01-04T01:42:24.275Z,100698.50
2023-01-04T01:43:49.991Z,100700.34
2023-01-04T01:44:55.903Z,100706.33
2023-01-04T01:45:58.554Z,100703.73
2023-01-04T01:47:01.261Z,100709.91
2023-01-04T01:48:07.685Z,100708.97
2023-01-04T01:49:17.071Z,100716.02
2023-01-04T01:51:35.431Z,100707.08
2023-01-04T01:52:38.207Z,100712.50
2023-01-04T01:53:43.286Z,100695.00
2023-01-04T01:54:48.497Z,100711.53
2023-01-04T01:55:52.128Z,100704.63
2023-01-04T01:56:57.914Z,100695.91
2023-01-04T01:58:01.366Z,100700.44
2023-01-04T01:59:04.367Z,100698.55
2023-01-04T02:00:10.801Z,100688.13
2023-01-04T02:01:13.411Z,100686.47
2023-01-04T02:02:15.582Z,100690.61
2023-01-04T02:03:23.563Z,100688.98
2023-01-04T02:04:26.213Z,100681.20
2023-01-04T02:05:30.795Z,100680.22
2023-01-04T02:06:39.520Z,100675.84
2023-01-04T02:07:42.711Z,100677.55
2023-01-04T02:08:45.416Z,100678.44
2023-01-04T02:09:49.806Z,100670.52
2023-01-04T02:10:52.189Z,100675.01
2023-01-04T02:11:54.113Z,100679.55
2023-01-04T02:12:57.980Z,100678.56
2023-01-04T02:14:02.499Z,100678.69
2023-01-04T02:15:06.203Z,100672.62
2023-01-04T02:16:21.709Z,100672.55
2023-01-04T02:17:45.415Z,100675.95
2023-01-04T02:19:08.078Z,100675.17
2023-01-04T02:20:26.693Z,100674.28
2023-01-04T02:21:49.190Z,100674.28
2023-01-04T02:23:00.612Z,100681.27
2023-01-04T02:24:04.764Z,100664.80
2023-01-04T02:25:39.727Z,100676.98
2023-01-04T02:27:06.997Z,100670.87
2023-01-04T02:28:15.463Z,100671.91
2023-01-04T02:29:37.122Z,100671.07
2023-01-04T02:31:09.180Z,100677.31
2023-01-04T02:32:16.029Z,100677.29
2023-01-04T02:33:43.706Z,100685.27
2023-01-04T02:34:58.798Z,100680.76
2023-01-04T02:37:51.875Z,100666.61
2023-01-04T02:39:06.828Z,100671.17
2023-01-04T02:40:19.675Z,100676.75
2023-01-04T02:41:37.382Z,100664.37
2023-01-04T02:42:45.730Z,100676.48
2023-01-04T02:43:57.304Z,100675.94
2023-01-04T02:45:01.088Z,100671.54
2023-01-04T02:46:10.020Z,100675.03
2023-01-04T02:47:16.008Z,100680.92
2023-01-04T02:48:18.098Z,100674.89
2023-01-04T02:49:19.968Z,100674.89
2023-01-04T02:50:32.241Z,100676.61
2023-01-04T02:51:36.743Z,100674.08
2023-01-04T02:52:38.843Z,100675.88
2023-01-04T02:53:41.671Z,100674.87
2023-01-04T02:54:45.626Z,100676.77
2023-01-04T02:56:03.478Z,100668.00
2023-01-04T02:57:26.116Z,100662.74
2023-01-04T02:58:37.650Z,100676.01
2023-01-04T03:00:06.351Z,100666.16
2023-01-04T03:01:44.567Z,100675.89
2023-01-04T03:03:02.535Z,100674.11
2023-01-04T03:04:34.487Z,100660.29
2023-01-04T03:05:49.404Z,100665.52
2023-01-04T03:07:01.274Z,100669.89
2023-01-04T03:08:21.602Z,100671.67
2023-01-04T03:09:27.306Z,100677.69
2023-01-04T03:10:33.103Z,100674.13
2023-01-04T03:11:50.966Z,100663.78
2023-01-04T03:13:12.164Z,100674.29
2023-01-04T03:14:31.360Z,100666.35
2023-01-04T03:15:25.088Z,100664.56
2023-01-04T03:16:29.661Z,100666.26
2023-01-04T03:17:35.466Z,100664.47
2023-01-04T03:18:43.693Z,100656.78
2023-01-04T03:19:47.934Z,100671.63
2023-01-04T03:20:53.625Z,100656.77
2023-01-04T03:21:56.136Z,100672.41
2023-01-04T03:23:01.425Z,100668.09
2023-01-04T03:24:06.199Z,100669.84
2023-01-04T03:25:10.278Z,100670.70
2023-01-04T03:26:16.786Z,100668.92
2023-01-04T03:27:20.705Z,100667.09
2023-01-04T03:28:26.477Z,100663.66
2023-01-04T03:29:50.549Z,100660.20
2023-01-04T03:30:59.461Z,100659.33
2023-01-04T03:32:08.255Z,100659.33
2023-01-04T03:33:10.538Z,100671.54
2023-01-04T03:34:14.654Z,100671.63
2023-01-04T03:35:19.342Z,100676.12
2023-01-04T03:36:43.920Z,100671.63
2023-01-04T03:39:12.494Z,100667.87
2023-01-04T03:40:25.004Z,100663.73
2023-01-04T03:41:33.715Z,100675.03
2023-01-04T03:42:42.390Z,100677.63
2023-01-04T03:43:48.074Z,100685.58
2023-01-04T03:45:10.062Z,100672.65
2023-01-04T03:46:17.392Z,100679.55
2023-01-04T03:47:26.333Z,100680.41
2023-01-04T03:48:32.097Z,100669.02
2023-01-04T03:49:50.514Z,100669.02
2023-01-04T03:50:56.485Z,100678.67
2023-01-04T03:52:01.846Z,100682.95
2023-01-04T03:53:06.991Z,100675.08
2023-01-04T03:54:37.015Z,100679.43
2023-01-04T03:55:41.585Z,100682.92
2023-01-04T03:56:45.580Z,100677.88
2023-01-04T03:57:48.287Z,100676.05
2023-01-04T03:58:51.788Z,100677.04
2023-01-04T03:59:57.449Z,100676.05
2023-01-04T04:01:03.249Z,100679.61
2023-01-04T04:02:05.802Z,100674.34
2023-01-04T04:03:08.381Z,100675.20
2023-01-04T04:04:11.319Z,100671.72
2023-01-04T04:05:22.449Z,100671.72
2023-01-04T04:06:25.117Z,100673.41
2023-01-04T04:07:28.682Z,100675.24
2023-01-04T04:08:31.246Z,100673.52
2023-01-04T04:09:33.141Z,100684.89
2023-01-04T04:10:35.873Z,100670.87
2023-01-04T04:11:38.044Z,100684.02
2023-01-04T04:12:40.225Z,100673.55
2023-01-04T04:13:42.146Z,100676.92
2023-01-04T04:14:44.132Z,100680.36
2023-01-04T04:15:46.121Z,100678.69
2023-01-04T04:16:48.364Z,100677.84
2023-01-04T04:17:50.321Z,100684.18
2023-01-04T04:18:52.575Z,100689.34
2023-01-04T04:19:54.460Z,100693.69
2023-01-04T04:20:57.346Z,100684.02
2023-01-04T04:21:59.333Z,100688.52
2023-01-04T04:23:02.345Z,100686.73
2023-01-04T04:24:06.555Z,100688.34
2023-01-04T04:25:09.596Z,100683.09
2023-01-04T04:26:12.482Z,100671.77
2023-01-04T04:27:14.647Z,100682.43
2023-01-04T04:28:16.663Z,100677.04
2023-01-04T04:29:18.654Z,100685.84
2023-01-04T04:30:21.603Z,100680.52
2023-01-04T04:31:24.495Z,100672.70
2023-01-04T04:32:26.560Z,100680.52
2023-01-04T04:33:28.458Z,100670.06
2023-01-04T04:34:30.446Z,100675.29
2023-01-04T04:35:32.467Z,100678.91
2023-01-04T04:36:34.665Z,100676.20
2023-01-04T04:37:36.773Z,100678.02
2023-01-04T04:38:39.131Z,100676.34
2023-01-04T04:39:41.323Z,100681.56
2023-01-04T04:40:44.722Z,100673.68
2023-01-04T04:41:46.729Z,100673.57
2023-01-04T04:42:48.958Z,100667.51
2023-01-04T04:43:52.086Z,100680.54
2023-01-04T04:44:54.377Z,100686.65
2023-01-04T04:45:56.348Z,100682.39
2023-01-04T04:46:58.577Z,100679.66
2023-01-04T04:48:00.455Z,100686.62
2023-01-04T04:49:03.691Z,100688.45
2023-01-04T04:50:08.436Z,100688.39
2023-01-04T04:51:10.416Z,100692.69
2023-01-04T04:52:12.590Z,100690.98
2023-01-04T04:53:14.677Z,100695.28
2023-01-04T04:54:19.742Z,100690.98
2023-01-04T04:55:23.988Z,100697.02
2023-01-04T04:56:26.780Z,100699.66
2023-01-04T04:57:28.665Z,100707.46
2023-01-04T04:58:30.656Z,100697.92
2023-01-04T04:59:32.799Z,100703.89
2023-01-04T05:00:34.970Z,100698.59
2023-01-04T05:01:37.181Z,100710.91
2023-01-04T05:02:39.557Z,100701.36
2023-01-04T05:03:41.982Z,100706.59
2023-01-04T05:04:44.131Z,100709.02
2023-01-04T05:05:46.003Z,100707.22
2023-01-04T05:06:49.586Z,100705.41
2023-01-04T05:07:51.488Z,100699.38
2023-01-04T05:08:53.881Z,100709.86
2023-01-04T05:09:55.919Z,100706.24
2023-01-04T05:10:58.336Z,100707.98
2023-01-04T05:12:00.309Z,100708.79
2023-01-04T05:13:02.217Z,100699.95
2023-01-04T05:14:04.429Z,100715.61
2023-01-04T05:15:07.573Z,100713.91
2023-01-04T05:16:10.616Z,100708.70
2023-01-04T05:17:12.569Z,100715.69
2023-01-04T05:18:17.633Z,100706.03
2023-01-04T05:19:19.562Z,100716.52
2023-01-04T05:20:23.470Z,100712.99
2023-01-04T05:21:25.710Z,100710.33
2023-01-04T05:22:27.938Z,100707.69
2023-01-04T05:23:29.929Z,100709.36
2023-01-04T05:24:31.901Z,100711.02
2023-01-04T05:25:34.380Z,100709.41
2023-01-04T05:26:36.480Z,100714.55
2023-01-04T05:27:39.758Z,100705.78
2023-01-04T05:28:42.038Z,100706.61
2023-01-04T05:29:44.038Z,100715.59
2023-01-04T05:30:49.009Z,100708.42
2023-01-04T05:31:50.996Z,100704.17
2023-01-04T05:32:53.011Z,100704.90
2023-01-04T05:33:55.254Z,100705.83
2023-01-04T05:34:57.134Z,100710.23
2023-01-04T05:36:01.758Z,100712.84
2023-01-04T05:37:04.941Z,100716.57
2023-01-04T05:38:08.070Z,100706.05
2023-01-04T05:39:10.556Z,100714.56
2023-01-04T05:40:12.723Z,100711.92
2023-01-04T05:41:15.503Z,100719.73
2023-01-04T05:42:17.400Z,100711.87
2023-01-04T05:43:21.310Z,100709.50
2023-01-04T05:44:23.300Z,100712.02
2023-01-04T05:45:26.703Z,100712.90
2023-01-04T05:46:29.955Z,100708.42
2023-01-04T05:47:32.885Z,100714.64
2023-01-04T05:48:35.009Z,100707.66
2023-01-04T05:49:36.938Z,100712.00
2023-01-04T05:50:39.732Z,100712.80
2023-01-04T05:51:41.620Z,100716.42
2023-01-04T05:52:43.615Z,100717.28
2023-01-04T05:53:45.502Z,100710.23
2023-01-04T05:54:47.520Z,100716.30
2023-01-04T05:55:49.990Z,100717.19
2023-01-04T05:56:52.090Z,100717.20
2023-01-04T05:57:54.385Z,100715.59
2023-01-04T05:58:56.267Z,100709.50
2023-01-04T05:59:58.143Z,100706.93
2023-01-04T06:01:00.826Z,100718.13
2023-01-04T06:02:03.420Z,100713.83
2023-01-04T06:03:05.731Z,100714.64
2023-01-04T06:04:07.927Z,100723.52
2023-01-04T06:05:11.187Z,100712.84
2023-01-04T06:06:15.504Z,100712.95
2023-01-04T06:07:17.832Z,100714.87
2023-01-04T06:08:19.771Z,100712.12
2023-01-04T06:09:22.673Z,100705.09
2023-01-04T06:10:25.164Z,100705.09
2023-01-04T06:11:27.935Z,100717.30
2023-01-04T06:12:30.052Z,100715.69
2023-01-04T06:13:31.955Z,100714.73
2023-01-04T06:14:34.428Z,100719.88
2023-01-04T06:15:41.059Z,100717.40
2023-01-04T06:16:40.831Z,100727.77
2023-01-04T06:17:43.432Z,100722.49
2023-01-04T06:18:45.558Z,100720.73
2023-01-04T06:19:47.438Z,100727.70
2023-01-04T06:20:51.205Z,100725.94
2023-01-04T06:21:53.643Z,100728.60
2023-01-04T06:22:55.550Z,100728.55
2023-01-04T06:23:57.614Z,100719.78
2023-01-04T06:24:59.780Z,100723.41
2023-01-04T06:26:01.668Z,100740.86
2023-01-04T06:27:04.055Z,100738.10
2023-01-04T06:28:07.534Z,100736.38
2023-01-04T06:29:09.843Z,100737.46
2023-01-04T06:30:13.043Z,100728.55
2023-01-04T06:31:15.209Z,100728.55
2023-01-04T06:32:17.398Z,100738.17
2023-01-04T06:33:20.499Z,100737.29
2023-01-04T06:34:28.579Z,100744.28
2023-01-04T06:35:26.442Z,100741.58
2023-01-04T06:36:29.538Z,100742.41
2023-01-04T06:37:31.445Z,100752.95
2023-01-04T06:38:33.868Z,100746.78
2023-01-04T06:39:36.148Z,100754.59
2023-01-04T06:40:38.341Z,100755.42
2023-01-04T06:41:41.068Z,100751.09
2023-01-04T06:42:43.010Z,100751.23
2023-01-04T06:43:45.982Z,100748.42
2023-01-04T06:44:47.972Z,100752.06
2023-01-04T06:45:49.903Z,100750.43
2023-01-04T06:46:52.036Z,100753.11
2023-01-04T06:47:53.946Z,100754.69
2023-01-04T06:48:56.088Z,100764.21
2023-01-04T06:49:57.963Z,100756.45
2023-01-04T06:51:00.242Z,100768.47
2023-01-04T06:52:03.097Z,100743.18
2023-01-04T06:53:05.421Z,100767.53
2023-01-04T06:54:09.301Z,100765.20
2023-01-04T06:55:11.421Z,100767.66
2023-01-04T06:56:14.837Z,100765.80
2023-01-04T06:57:16.736Z,100772.63
2023-01-04T06:58:19.293Z,100769.98
2023-01-04T06:59:21.197Z,100777.09
2023-01-04T07:00:25.947Z,100781.31
2023-01-04T07:01:28.134Z,100769.05
2023-01-04T07:02:30.372Z,100767.26
2023-01-04T07:03:32.871Z,100775.27
2023-01-04T07:04:34.866Z,100781.50
2023-01-04T07:05:36.841Z,100772.72
2023-01-04T07:06:39.033Z,100776.13
2023-01-04T07:07:41.102Z,100779.52
2023-01-04T07:08:43.613Z,100780.30
2023-01-04T07:09:45.752Z,100773.27
2023-01-04T07:10:48.841Z,100776.80
2023-01-04T07:11:51.662Z,100780.20
2023-01-04T07:12:55.045Z,100775.77
2023-01-04T07:13:56.976Z,100771.44
2023-01-04T07:15:00.335Z,100773.27
2023-01-04T07:16:02.769Z,100782.75
2023-01-04T07:17:04.933Z,100782.83
2023-01-04T07:18:09.163Z,100781.12
2023-01-04T07:19:11.065Z,100779.63
2023-01-04T07:20:16.161Z,100789.08
2023-01-04T07:21:18.124Z,100775.98
2023-01-04T07:22:20.195Z,100794.13
2023-01-04T07:23:22.281Z,100782.87
2023-01-04T07:24:29.996Z,100786.30
2023-01-04T07:25:28.906Z,100779.25
2023-01-04T07:26:32.533Z,100784.40
2023-01-04T07:27:34.822Z,100792.31
2023-01-04T07:28:37.405Z,100783.50
2023-01-04T07:29:39.777Z,100786.17
2023-01-04T07:30:41.885Z,100784.35
2023-01-04T07:31:46.848Z,100793.15
2023-01-04T07:32:51.039Z,100788.81
2023-01-04T07:33:53.186Z,100788.84
2023-01-04T07:34:55.192Z,100788.09
2023-01-04T07:36:04.719Z,100790.50
2023-01-04T07:37:07.197Z,100796.65
2023-01-04T07:38:09.094Z,100797.45
2023-01-04T07:39:11.129Z,100795.92
2023-01-04T07:40:13.976Z,100794.13
2023-01-04T07:41:16.020Z,100787.18
2023-01-04T07:42:18.165Z,100791.48
2023-01-04T07:43:25.844Z,100793.95
2023-01-04T07:44:24.391Z,100778.20
2023-01-04T07:45:26.704Z,100794.70
2023-01-04T07:46:30.439Z,100800.77
2023-01-04T07:47:33.091Z,100787.98
2023-01-04T07:48:35.098Z,100799.27
2023-01-04T07:49:37.135Z,100790.68
2023-01-04T07:50:39.659Z,100790.88
2023-01-04T07:51:41.560Z,100788.09
2023-01-04T07:52:43.672Z,100794.03
2023-01-04T07:53:45.820Z,100800.95
2023-01-04T07:54:47.923Z,100794.28
2023-01-04T07:55:56.734Z,100793.40
2023-01-04T07:56:58.895Z,100795.89
2023-01-04T07:58:00.762Z,100796.83
2023-01-04T07:59:05.003Z,100801.11
2023-01-04T08:00:08.938Z,100797.61
2023-01-04T08:01:14.375Z,100802.06
2023-01-04T08:02:17.002Z,100793.17
2023-01-04T08:03:19.317Z,100794.08
2023-01-04T08:04:23.071Z,100799.42
2023-01-04T08:05:25.239Z,100793.09
2023-01-04T08:06:27.298Z,100791.51
2023-01-04T08:07:29.196Z,100790.68
2023-01-04T08:08:31.808Z,100796.63
2023-01-04T08:09:33.698Z,100794.03
2023-01-04T08:10:36.134Z,100796.83
2023-01-04T08:11:38.551Z,100805.34
2023-01-04T08:12:40.693Z,100803.00
2023-01-04T08:13:43.286Z,100799.19
2023-01-04T08:14:46.391Z,100799.94
2023-01-04T08:15:53.603Z,100805.95
2023-01-04T08:16:56.018Z,100808.69
2023-01-04T08:17:57.906Z,100811.52
2023-01-04T08:19:04.617Z,100801.94
2023-01-04T08:20:08.282Z,100803.66
2023-01-04T08:21:10.293Z,100807.91
2023-01-04T08:22:13.470Z,100802.51
2023-01-04T08:23:16.708Z,100809.48
2023-01-04T08:24:19.710Z,100796.33
2023-01-04T08:25:21.790Z,100800.61
2023-01-04T08:26:24.147Z,100805.95
2023-01-04T08:27:26.337Z,100809.38
2023-01-04T08:28:29.148Z,100805.91
2023-01-04T08:29:34.818Z,100805.83
2023-01-04T08:30:35.562Z,100802.30
2023-01-04T08:31:39.140Z,100805.80
2023-01-04T08:32:41.461Z,100812.67
2023-01-04T08:33:44.937Z,100808.20
2023-01-04T08:34:47.419Z,100817.22
2023-01-04T08:35:49.481Z,100791.06
2023-01-04T08:36:51.562Z,100831.02
2023-01-04T08:37:53.453Z,100808.28
2023-01-04T08:39:00.496Z,100825.11
2023-01-04T08:40:05.100Z,100828.56
2023-01-04T08:41:30.934Z,100817.08
2023-01-04T08:42:22.104Z,100827.62
2023-01-04T08:43:16.160Z,100828.63
2023-01-04T08:44:19.884Z,100823.59
2023-01-04T08:45:21.825Z,100827.88
2023-01-04T08:46:24.178Z,100835.84
2023-01-04T08:47:28.632Z,100830.45
2023-01-04T08:48:32.101Z,100833.37
2023-01-04T08:49:34.585Z,100837.64
2023-01-04T08:50:36.775Z,100834.89
2023-01-04T08:51:39.159Z,100837.53
2023-01-04T08:52:41.059Z,100836.65
2023-01-04T08:53:43.869Z,100834.00
2023-01-04T08:54:45.800Z,100830.45
2023-01-04T08:55:50.355Z,100833.02
2023-01-04T08:56:52.473Z,100826.05
2023-01-04T08:57:54.402Z,100831.25
2023-01-04T08:58:56.513Z,100824.33
2023-01-04T08:59:58.553Z,100821.73
2023-01-04T09:01:03.835Z,100823.47
2023-01-04T09:02:26.934Z,100828.71
2023-01-04T09:03:30.064Z,100827.05
2023-01-04T09:04:32.229Z,100832.05
2023-01-04T09:05:34.465Z,100833.13
2023-01-04T09:06:38.103Z,100831.33
2023-01-04T09:07:40.118Z,100831.28
2023-01-04T09:08:43.143Z,100830.43
2023-01-04T09:09:45.152Z,100834.70
2023-01-04T09:10:47.470Z,100833.20
2023-01-04T09:11:49.469Z,100833.15
2023-01-04T09:12:51.456Z,100833.95
2023-01-04T09:14:06.712Z,100828.71
2023-01-04T09:15:03.705Z,100835.80
2023-01-04T09:16:09.000Z,100837.45
2023-01-04T09:17:11.167Z,100837.53
2023-01-04T09:18:30.781Z,100840.98
2023-01-04T09:19:21.873Z,100837.76
2023-01-04T09:20:22.697Z,100824.61
2023-01-04T09:21:24.831Z,100824.61
2023-01-04T09:22:26.852Z,100831.64
2023-01-04T09:23:30.658Z,100833.40
2023-01-04T09:24:33.515Z,100836.92
2023-01-04T09:25:38.774Z,100844.64
2023-01-04T09:26:41.086Z,100842.12
2023-01-04T09:27:43.763Z,100843.21
2023-01-04T09:28:45.652Z,100834.52
2023-01-04T09:29:47.629Z,100841.69
2023-01-04T09:30:49.884Z,100839.85
2023-01-04T09:31:52.300Z,100840.16
2023-01-04T09:32:54.462Z,100838.28
2023-01-04T09:34:14.604Z,100846.86
2023-01-04T09:35:00.762Z,100850.37
2023-01-04T09:36:04.621Z,100840.81
2023-01-04T09:37:06.531Z,100850.35
2023-01-04T09:38:08.553Z,100847.86
2023-01-04T09:39:16.824Z,100843.47
2023-01-04T09:40:21.801Z,100860.06
2023-01-04T09:41:27.654Z,100859.14
2023-01-04T09:42:37.182Z,100854.95
2023-01-04T09:43:45.230Z,100845.34
2023-01-04T09:46:01.825Z,100853.02
2023-01-04T09:47:07.634Z,100843.90
2023-01-04T09:48:13.561Z,100846.52
2023-01-04T09:49:25.308Z,100837.53
2023-01-04T09:50:31.424Z,100849.61
2023-01-04T09:51:36.625Z,100841.80
2023-01-04T09:53:04.035Z,100834.70
2023-01-04T09:54:13.294Z,100839.06
2023-01-04T09:55:38.250Z,100839.22
2023-01-04T09:56:32.343Z,100840.83
2023-01-04T09:57:41.045Z,100841.62
2023-01-04T09:58:43.832Z,100832.83
2023-01-04T09:59:47.811Z,100839.73
2023-01-04T10:01:25.968Z,100837.49
2023-01-04T10:04:21.289Z,100830.42
2023-01-04T10:05:29.250Z,100832.20
2023-01-04T10:06:36.660Z,100827.13
2023-01-04T10:07:38.594Z,100833.00
2023-01-04T10:08:42.875Z,100834.69
2023-01-04T10:09:44.884Z,100821.43
2023-01-04T10:11:16.005Z,100825.73
2023-01-04T10:12:30.434Z,100818.71
2023-01-04T10:13:38.965Z,100817.68
2023-01-04T10:14:44.830Z,100817.88
2023-01-04T10:15:53.353Z,100816.33
2023-01-04T10:21:12.837Z,100814.18
2023-01-04T10:22:21.426Z,100817.80
2023-01-04T10:23:36.194Z,100821.21
2023-01-04T10:24:56.686Z,100812.41
2023-01-04T10:26:07.099Z,100822.92
2023-01-04T10:28:48.031Z,100818.44
2023-01-04T10:30:05.757Z,100815.31
2023-01-04T10:31:43.745Z,100802.95
2023-01-04T10:32:49.681Z,100807.05
2023-01-04T10:34:07.113Z,100806.84
2023-01-04T10:35:22.077Z,100798.28
2023-01-04T10:36:28.405Z,100809.64
2023-01-04T10:37:34.157Z,100803.34
2023-01-04T10:38:38.353Z,100807.77
2023-01-04T10:39:42.868Z,100798.12
2023-01-04T10:40:47.232Z,100805.91
2023-01-04T10:41:58.758Z,100798.84
2023-01-04T10:43:24.090Z,100797.96
2023-01-04T10:44:42.176Z,100792.61
2023-01-04T10:46:10.564Z,100791.04
2023-01-04T10:47:31.623Z,100784.88
2023-01-04T10:48:42.759Z,100783.89
2023-01-04T10:50:00.287Z,100789.30
2023-01-04T10:51:09.627Z,100784.22
2023-01-04T10:52:21.306Z,100788.47
2023-01-04T10:53:27.374Z,100786.17
2023-01-04T10:54:42.426Z,100793.77
2023-01-04T10:56:25.281Z,100785.80
2023-01-04T10:57:06.591Z,100798.88
2023-01-04T10:58:24.461Z,100787.39
2023-01-04T10:59:48.252Z,100789.30
2023-01-04T11:00:54.836Z,100791.97
2023-01-04T11:02:21.681Z,100791.25
2023-01-04T11:03:48.800Z,100793.69
2023-01-04T11:05:06.079Z,100798.15
2023-01-04T11:06:21.656Z,100803.52
2023-01-04T11:08:44.474Z,100805.91
2023-01-04T11:09:59.112Z,100797.56
2023-01-04T11:11:10.429Z,100794.80
2023-01-04T11:12:16.236Z,100804.50
2023-01-04T11:13:18.289Z,100800.28
2023-01-04T11:14:20.392Z,100801.89
2023-01-04T11:15:23.119Z,100800.95
2023-01-04T11:16:26.126Z,100801.66
2023-01-04T11:17:30.987Z,100795.53
2023-01-04T11:18:36.619Z,100783.23
2023-01-04T11:19:39.428Z,100795.47
2023-01-04T11:20:42.930Z,100788.36
2023-01-04T11:22:06.704Z,100783.92
2023-01-04T11:23:12.627Z,100790.07
2023-01-04T11:24:32.021Z,100795.45
2023-01-04T11:25:38.198Z,100791.81
2023-01-04T11:26:30.759Z,100786.57
2023-01-04T11:27:39.260Z,100789.41
2023-01-04T11:28:53.887Z,100783.39
2023-01-04T11:29:59.658Z,100786.95
2023-01-04T11:31:18.426Z,100794.08
2023-01-04T11:32:41.246Z,100792.23
2023-01-04T11:34:01.447Z,100785.23
2023-01-04T11:35:04.394Z,100783.36
2023-01-04T11:36:08.131Z,100787.75
2023-01-04T11:37:26.368Z,100779.89
2023-01-04T11:38:30.071Z,100778.09
2023-01-04T11:39:32.057Z,100789.64
2023-01-04T11:40:34.031Z,100794.75
2023-01-04T11:41:35.975Z,100783.28
2023-01-04T11:42:38.449Z,100784.11
2023-01-04T11:43:44.200Z,100791.97
2023-01-04T11:44:50.670Z,100788.63
2023-01-04T11:46:08.164Z,100787.98
2023-01-04T11:47:23.391Z,100783.45
2023-01-04T11:48:43.308Z,100779.75
2023-01-04T11:49:46.041Z,100781.49
2023-01-04T11:50:48.626Z,100781.92
2023-01-04T11:51:50.656Z,100773.71
2023-01-04T11:52:52.942Z,100778.90
2023-01-04T11:55:26.518Z,100777.70
2023-01-04T11:56:33.967Z,100777.08
2023-01-04T11:57:35.897Z,100771.94
2023-01-04T11:58:38.377Z,100774.45
2023-01-04T11:59:40.250Z,100784.19
2023-01-04T12:00:51.235Z,100778.81
2023-01-04T12:02:42.249Z,100783.98
2023-01-04T12:03:25.201Z,100788.47
2023-01-04T12:04:28.114Z,100778.84
2023-01-04T12:05:31.936Z,100775.31
2023-01-04T12:06:46.424Z,100776.14
2023-01-04T12:07:48.431Z,100799.22
2023-01-04T12:08:50.476Z,100788.42
2023-01-04T12:09:53.552Z,100779.64
2023-01-04T12:10:58.415Z,100780.44
2023-01-04T12:12:00.947Z,100792.64
2023-01-04T12:13:07.545Z,100775.97
2023-01-04T12:15:38.120Z,100772.38
2023-01-04T12:16:53.120Z,100776.97
2023-01-04T12:18:04.827Z,100779.70
2023-01-04T12:19:10.645Z,100778.81
2023-01-04T12:20:19.555Z,100783.03
2023-01-04T12:21:25.673Z,100776.00
2023-01-04T12:22:37.337Z,100782.54
2023-01-04T12:23:40.496Z,100775.34
2023-01-04T12:24:45.110Z,100777.94
2023-01-04T12:25:52.192Z,100778.77
2023-01-04T12:26:55.532Z,100776.97
2023-01-04T12:27:59.168Z,100780.53
2023-01-04T12:29:24.711Z,100779.61
2023-01-04T12:30:40.375Z,100784.00
2023-01-04T12:31:42.296Z,100789.98
2023-01-04T12:32:45.694Z,100783.87
2023-01-04T12:33:59.545Z,100779.64
2023-01-04T12:35:06.105Z,100784.48
2023-01-04T12:36:10.914Z,100795.04
2023-01-04T12:37:39.490Z,100787.13
2023-01-04T12:39:03.502Z,100787.08
2023-01-04T12:40:45.718Z,100791.23
2023-01-04T12:41:52.105Z,100780.16
2023-01-04T12:43:16.375Z,100785.23
2023-01-04T12:44:40.499Z,100793.95
2023-01-04T12:45:45.442Z,100785.19
2023-01-04T12:46:52.867Z,100795.72
2023-01-04T12:47:55.722Z,100785.21